createdAt,value
2017-01-15T00:00:40.103Z,0
2017-01-15T00:01:20.652Z,0
2017-01-15T00:02:01.306Z,0
2017-01-15T00:02:41.960Z,0
2017-01-15T00:03:22.534Z,0
2017-01-15T00:04:03.250Z,0
2017-01-15T00:04:43.814Z,0
2017-01-15T00:05:24.469Z,0
2017-01-15T00:06:05.121Z,0
2017-01-15T00:06:45.773Z,0
2017-01-15T00:07:26.441Z,0
2017-01-15T00:08:07.003Z,0
2017-01-15T00:08:47.630Z,0
2017-01-15T00:09:28.283Z,0
2017-01-15T00:10:08.938Z,0
2017-01-15T00:10:49.589Z,0
2017-01-15T00:11:30.242Z,0
2017-01-15T00:12:10.895Z,0
2017-01-15T00:12:51.555Z,0
2017-01-15T00:13:32.202Z,0
2017-01-15T00:14:12.860Z,0
2017-01-15T00:14:53.507Z,0
2017-01-15T00:15:34.159Z,0
2017-01-15T00:16:14.812Z,0
2017-01-15T00:16:55.465Z,0
2017-01-15T00:17:36.121Z,0
2017-01-15T00:18:16.789Z,0
2017-01-15T00:18:57.427Z,0
2017-01-15T00:19:38.076Z,0
2017-01-15T00:20:20.687Z,0
2017-01-15T00:21:01.329Z,0
2017-01-15T00:21:41.981Z,0
2017-01-15T00:22:23.556Z,0
2017-01-15T00:23:05.132Z,0
2017-01-15T00:23:46.704Z,0
2017-01-15T00:24:27.358Z,0
2017-01-15T00:25:08.008Z,0
2017-01-15T00:25:48.663Z,0
2017-01-15T00:26:29.318Z,0
2017-01-15T00:27:10.995Z,0
2017-01-15T00:27:51.647Z,0
2017-01-15T00:28:32.308Z,0
2017-01-15T00:29:12.954Z,0
2017-01-15T00:29:54.631Z,0
2017-01-15T00:30:35.285Z,0
2017-01-15T00:31:15.932Z,0
2017-01-15T00:31:57.633Z,0
2017-01-15T00:32:38.267Z,0
2017-01-15T00:33:18.915Z,0
2017-01-15T00:33:59.568Z,0
2017-01-15T00:34:40.230Z,0
2017-01-15T00:35:20.849Z,0
2017-01-15T00:36:01.479Z,0
2017-01-15T00:36:42.076Z,0
2017-01-15T00:37:22.626Z,0
2017-01-15T00:38:03.250Z,0
2017-01-15T00:38:43.835Z,0
2017-01-15T00:39:25.525Z,0
2017-01-15T00:40:06.044Z,0
2017-01-15T00:40:46.710Z,0
2017-01-15T00:41:27.375Z,0
2017-01-15T00:42:08.022Z,0
2017-01-15T00:42:48.674Z,0
2017-01-15T00:43:29.328Z,0
2017-01-15T00:44:09.980Z,0
2017-01-15T00:44:50.633Z,0
2017-01-15T00:45:31.207Z,0
2017-01-15T00:46:11.809Z,0
2017-01-15T00:46:52.386Z,0
2017-01-15T00:47:33.042Z,0
2017-01-15T00:48:13.601Z,0
2017-01-15T00:48:54.194Z,0
2017-01-15T00:49:34.790Z,0
2017-01-15T00:50:15.442Z,0
2017-01-15T00:51:00.805Z,0
2017-01-15T00:51:41.478Z,0
2017-01-15T00:52:23.143Z,0
2017-01-15T00:53:04.817Z,0
2017-01-15T00:53:45.468Z,0
2017-01-15T00:54:26.140Z,0
2017-01-15T00:55:06.774Z,0
2017-01-15T00:55:47.431Z,0
2017-01-15T00:56:28.079Z,0
2017-01-15T00:57:08.760Z,0
2017-01-15T00:57:49.390Z,0
2017-01-15T00:58:30.039Z,0
2017-01-15T00:59:10.709Z,0
2017-01-15T00:59:51.362Z,0
2017-01-15T01:00:32.000Z,0
2017-01-15T01:01:12.650Z,0
2017-01-15T01:01:54.339Z,0
2017-01-15T01:02:36.002Z,0
2017-01-15T01:03:18.613Z,0
2017-01-15T01:03:59.182Z,0
2017-01-15T01:04:40.849Z,0
2017-01-15T01:05:22.476Z,0
2017-01-15T01:06:03.056Z,0
2017-01-15T01:06:43.721Z,0
2017-01-15T01:07:24.305Z,0
2017-01-15T01:08:05.915Z,0
2017-01-15T01:08:46.607Z,0
2017-01-15T01:09:27.244Z,0
2017-01-15T01:10:07.823Z,0
2017-01-15T01:10:50.444Z,0
2017-01-15T01:11:31.049Z,0
2017-01-15T01:12:13.642Z,0
2017-01-15T01:12:54.222Z,0
2017-01-15T01:13:35.820Z,0
2017-01-15T01:14:16.423Z,0
2017-01-15T01:14:57.075Z,0
2017-01-15T01:15:37.728Z,0
2017-01-15T01:16:18.383Z,0
2017-01-15T01:16:59.035Z,0
2017-01-15T01:17:39.689Z,0
2017-01-15T01:18:20.344Z,0
2017-01-15T01:19:00.997Z,0
2017-01-15T01:19:42.674Z,0
2017-01-15T01:20:23.324Z,0
2017-01-15T01:21:03.975Z,0
2017-01-15T01:21:44.640Z,0
2017-01-15T01:22:25.283Z,0
2017-01-15T01:23:05.938Z,0
2017-01-15T01:23:46.590Z,0
2017-01-15T01:24:27.244Z,0
2017-01-15T01:25:07.898Z,0
2017-01-15T01:25:49.470Z,0
2017-01-15T01:26:30.025Z,0
2017-01-15T01:27:15.283Z,0
2017-01-15T01:27:56.961Z,0
2017-01-15T01:28:37.614Z,0
2017-01-15T01:29:19.191Z,0
2017-01-15T01:30:00.756Z,0
2017-01-15T01:30:41.308Z,0
2017-01-15T01:31:21.963Z,0
2017-01-15T01:32:02.617Z,0
2017-01-15T01:32:43.166Z,0
2017-01-15T01:33:23.728Z,0
2017-01-15T01:34:04.371Z,0
2017-01-15T01:34:44.950Z,0
2017-01-15T01:35:25.573Z,0
2017-01-15T01:36:06.225Z,0
2017-01-15T01:36:46.791Z,0
2017-01-15T01:37:27.386Z,0
2017-01-15T01:38:08.091Z,0
2017-01-15T01:38:48.746Z,0
2017-01-15T01:39:29.341Z,0
2017-01-15T01:40:09.993Z,0
2017-01-15T01:40:51.618Z,0
2017-01-15T01:41:32.258Z,0
2017-01-15T01:42:12.919Z,0
2017-01-15T01:42:53.574Z,0
2017-01-15T01:43:34.227Z,0
2017-01-15T01:44:15.804Z,0
2017-01-15T01:44:56.454Z,0
2017-01-15T01:45:37.109Z,0
2017-01-15T01:46:17.763Z,0
2017-01-15T01:46:58.417Z,0
2017-01-15T01:47:39.069Z,0
2017-01-15T01:48:19.721Z,0
2017-01-15T01:49:00.376Z,0
2017-01-15T01:49:41.028Z,0
2017-01-15T01:50:21.681Z,0
2017-01-15T01:51:03.254Z,0
2017-01-15T01:51:43.908Z,0
2017-01-15T01:52:24.559Z,0
2017-01-15T01:53:05.113Z,0
2017-01-15T01:53:45.760Z,0
2017-01-15T01:54:26.319Z,0
2017-01-15T01:55:07.893Z,0
2017-01-15T01:55:48.439Z,0
2017-01-15T01:56:29.055Z,0
2017-01-15T01:57:10.693Z,0
2017-01-15T01:57:51.343Z,0
2017-01-15T01:58:31.960Z,0
2017-01-15T01:59:12.574Z,0
2017-01-15T01:59:53.175Z,0
2017-01-15T02:00:33.828Z,0
2017-01-15T02:01:15.529Z,0
2017-01-15T02:01:56.159Z,0
2017-01-15T02:02:36.811Z,0
2017-01-15T02:03:17.464Z,0
2017-01-15T02:03:58.118Z,0
2017-01-15T02:04:39.712Z,0
2017-01-15T02:05:20.345Z,0
2017-01-15T02:06:02.024Z,0
2017-01-15T02:06:43.598Z,0
2017-01-15T02:07:24.250Z,0
2017-01-15T02:08:04.908Z,0
2017-01-15T02:08:46.481Z,0
2017-01-15T02:09:27.131Z,0
2017-01-15T02:10:07.786Z,0
2017-01-15T02:10:48.344Z,0
2017-01-15T02:11:28.988Z,0
2017-01-15T02:12:09.642Z,0
2017-01-15T02:12:50.195Z,0
2017-01-15T02:13:30.845Z,0
2017-01-15T02:14:11.496Z,0
2017-01-15T02:14:52.059Z,0
2017-01-15T02:15:32.704Z,0
2017-01-15T02:16:13.275Z,0
2017-01-15T02:16:53.881Z,0
2017-01-15T02:17:35.477Z,0
2017-01-15T02:18:16.131Z,0
2017-01-15T02:18:56.718Z,0
2017-01-15T02:19:37.397Z,0
2017-01-15T02:20:17.994Z,0
2017-01-15T02:20:58.641Z,0
2017-01-15T02:21:39.345Z,0
2017-01-15T02:22:19.947Z,0
2017-01-15T02:23:00.601Z,0
2017-01-15T02:23:42.175Z,0
2017-01-15T02:24:24.775Z,0
2017-01-15T02:25:05.440Z,0
2017-01-15T02:25:46.098Z,0
2017-01-15T02:26:26.732Z,0
2017-01-15T02:27:07.388Z,0
2017-01-15T02:27:48.051Z,0
2017-01-15T02:28:28.693Z,0
2017-01-15T02:29:09.350Z,0
2017-01-15T02:29:51.039Z,0
2017-01-15T02:30:31.678Z,0
2017-01-15T02:31:12.328Z,0
2017-01-15T02:31:52.982Z,0
2017-01-15T02:32:33.651Z,0
2017-01-15T02:33:14.295Z,0
2017-01-15T02:33:54.941Z,0
2017-01-15T02:34:35.593Z,0
2017-01-15T02:35:17.167Z,0
2017-01-15T02:35:57.829Z,0
2017-01-15T02:36:38.478Z,0
2017-01-15T02:37:19.127Z,0
2017-01-15T02:37:59.780Z,0
2017-01-15T02:38:40.433Z,0
2017-01-15T02:39:21.086Z,0
2017-01-15T02:40:01.750Z,0
2017-01-15T02:40:42.301Z,0
2017-01-15T02:41:22.922Z,0
2017-01-15T02:42:03.512Z,0
2017-01-15T02:42:44.068Z,0
2017-01-15T02:43:24.642Z,0
2017-01-15T02:44:05.247Z,0
2017-01-15T02:44:45.909Z,0
2017-01-15T02:45:26.497Z,0
2017-01-15T02:46:09.098Z,0
2017-01-15T02:46:49.755Z,0
2017-01-15T02:47:30.420Z,0
2017-01-15T02:48:11.077Z,0
2017-01-15T02:48:51.720Z,0
2017-01-15T02:49:32.417Z,0
2017-01-15T02:50:13.020Z,0
2017-01-15T02:50:53.575Z,0
2017-01-15T02:51:34.255Z,0
2017-01-15T02:52:15.054Z,0
2017-01-15T02:52:55.886Z,0
2017-01-15T02:53:36.647Z,0
2017-01-15T02:54:18.233Z,0
2017-01-15T02:54:58.823Z,0
2017-01-15T02:55:39.425Z,0
2017-01-15T02:56:19.976Z,0
2017-01-15T02:57:00.546Z,0
2017-01-15T02:57:41.146Z,0
2017-01-15T02:58:21.721Z,0
2017-01-15T02:59:02.382Z,0
2017-01-15T02:59:42.954Z,0
2017-01-15T03:00:23.569Z,0
2017-01-15T03:01:04.251Z,0
2017-01-15T03:01:44.810Z,0
2017-01-15T03:02:25.412Z,0
2017-01-15T03:03:06.103Z,0
2017-01-15T03:03:46.653Z,0
2017-01-15T03:04:27.250Z,0
2017-01-15T03:05:07.836Z,0
2017-01-15T03:05:48.502Z,0
2017-01-15T03:06:29.160Z,0
2017-01-15T03:07:09.744Z,0
2017-01-15T03:07:50.432Z,0
2017-01-15T03:08:31.097Z,0
2017-01-15T03:09:13.712Z,0
2017-01-15T03:09:54.285Z,0
2017-01-15T03:10:34.877Z,0
2017-01-15T03:11:15.569Z,0
2017-01-15T03:11:56.141Z,0
2017-01-15T03:12:36.779Z,0
2017-01-15T03:13:17.432Z,0
2017-01-15T03:13:58.011Z,0
2017-01-15T03:14:38.638Z,0
2017-01-15T03:15:19.288Z,0
2017-01-15T03:15:59.847Z,0
2017-01-15T03:16:40.478Z,0
2017-01-15T03:17:21.136Z,0
2017-01-15T03:18:01.701Z,0
2017-01-15T03:18:44.292Z,0
2017-01-15T03:19:24.934Z,0
2017-01-15T03:20:05.495Z,0
2017-01-15T03:20:48.090Z,0
2017-01-15T03:21:28.723Z,0
2017-01-15T03:22:09.423Z,0
2017-01-15T03:22:50.048Z,0
2017-01-15T03:23:31.729Z,0
2017-01-15T03:24:12.409Z,0
2017-01-15T03:24:52.975Z,0
2017-01-15T03:25:34.575Z,0
2017-01-15T03:26:15.243Z,0
2017-01-15T03:26:55.909Z,0
2017-01-15T03:27:36.464Z,0
2017-01-15T03:28:17.066Z,0
2017-01-15T03:28:57.665Z,0
2017-01-15T03:29:38.317Z,0
2017-01-15T03:30:18.867Z,0
2017-01-15T03:30:59.479Z,0
2017-01-15T03:31:40.195Z,0
2017-01-15T03:32:20.827Z,0
2017-01-15T03:33:01.406Z,0
2017-01-15T03:33:42.081Z,0
2017-01-15T03:34:22.656Z,0
2017-01-15T03:35:03.296Z,0
2017-01-15T03:35:43.890Z,0
2017-01-15T03:36:24.544Z,0
2017-01-15T03:37:05.197Z,0
2017-01-15T03:37:45.849Z,0
2017-01-15T03:38:26.504Z,0
2017-01-15T03:39:07.156Z,0
2017-01-15T03:39:47.832Z,0
2017-01-15T03:40:28.481Z,0
2017-01-15T03:41:09.116Z,0
2017-01-15T03:41:49.766Z,0
2017-01-15T03:42:30.424Z,0
2017-01-15T03:43:11.074Z,0
2017-01-15T03:43:52.649Z,0
2017-01-15T03:44:33.302Z,0
2017-01-15T03:45:13.954Z,0
2017-01-15T03:45:54.548Z,0
2017-01-15T03:46:35.181Z,0
2017-01-15T03:47:15.808Z,0
2017-01-15T03:47:56.363Z,0
2017-01-15T03:48:37.091Z,0
2017-01-15T03:49:17.643Z,0
2017-01-15T03:49:58.272Z,0
2017-01-15T03:50:38.866Z,0
2017-01-15T03:51:19.520Z,0
2017-01-15T03:52:00.173Z,0
2017-01-15T03:52:40.828Z,0
2017-01-15T03:53:21.479Z,0
2017-01-15T03:54:02.135Z,0
2017-01-15T03:54:42.683Z,0
2017-01-15T03:55:23.335Z,0
2017-01-15T03:56:03.885Z,0
2017-01-15T03:56:44.477Z,0
2017-01-15T03:57:25.088Z,0
2017-01-15T03:58:05.634Z,0
2017-01-15T03:58:46.213Z,0
2017-01-15T03:59:26.795Z,0
2017-01-15T04:00:07.394Z,0
2017-01-15T04:00:48.048Z,0
2017-01-15T04:01:28.699Z,0
2017-01-15T04:02:09.354Z,0
2017-01-15T04:02:49.902Z,0
2017-01-15T04:03:30.534Z,0
2017-01-15T04:04:11.166Z,0
2017-01-15T04:04:51.819Z,0
2017-01-15T04:05:32.484Z,0
2017-01-15T04:06:13.167Z,0
2017-01-15T04:06:53.826Z,0
2017-01-15T04:07:34.466Z,0
2017-01-15T04:08:15.127Z,0
2017-01-15T04:08:55.774Z,0
2017-01-15T04:09:38.380Z,0
2017-01-15T04:10:19.025Z,0
2017-01-15T04:10:59.622Z,0
2017-01-15T04:11:40.328Z,0
2017-01-15T04:12:20.983Z,0
2017-01-15T04:13:01.599Z,0
2017-01-15T04:13:42.213Z,0
2017-01-15T04:14:22.846Z,0
2017-01-15T04:15:03.416Z,0
2017-01-15T04:15:44.053Z,0
2017-01-15T04:16:24.704Z,0
2017-01-15T04:17:05.275Z,0
2017-01-15T04:17:45.862Z,0
2017-01-15T04:18:26.451Z,0
2017-01-15T04:19:07.109Z,0
2017-01-15T04:19:47.683Z,0
2017-01-15T04:20:29.298Z,0
2017-01-15T04:21:09.990Z,0
2017-01-15T04:21:50.643Z,0
2017-01-15T04:22:31.288Z,0
2017-01-15T04:23:11.940Z,0
2017-01-15T04:23:52.593Z,0
2017-01-15T04:24:34.182Z,0
2017-01-15T04:25:14.823Z,0
2017-01-15T04:25:55.475Z,0
2017-01-15T04:26:36.125Z,0
2017-01-15T04:27:16.788Z,0
2017-01-15T04:27:57.442Z,0
2017-01-15T04:28:39.170Z,0
2017-01-15T04:29:19.762Z,0
2017-01-15T04:30:00.412Z,0
2017-01-15T04:30:41.069Z,0
2017-01-15T04:31:21.725Z,0
2017-01-15T04:32:02.302Z,0
2017-01-15T04:32:42.885Z,0
2017-01-15T04:33:24.511Z,0
2017-01-15T04:34:05.164Z,0
2017-01-15T04:34:45.716Z,0
2017-01-15T04:35:26.322Z,0
2017-01-15T04:36:07.927Z,0
2017-01-15T04:36:48.596Z,0
2017-01-15T04:37:29.235Z,0
2017-01-15T04:38:09.898Z,0
2017-01-15T04:38:50.556Z,0
2017-01-15T04:39:31.211Z,0
2017-01-15T04:40:11.857Z,0
2017-01-15T04:40:52.516Z,0
2017-01-15T04:41:33.197Z,0
2017-01-15T04:42:13.830Z,0
2017-01-15T04:42:54.473Z,0
2017-01-15T04:43:35.122Z,0
2017-01-15T04:44:15.776Z,0
2017-01-15T04:44:56.421Z,0
2017-01-15T04:45:37.083Z,0
2017-01-15T04:46:17.734Z,0
2017-01-15T04:46:58.387Z,0
2017-01-15T04:47:39.045Z,0
2017-01-15T04:48:19.604Z,0
2017-01-15T04:49:00.245Z,0
2017-01-15T04:49:40.897Z,0
2017-01-15T04:50:21.551Z,0
2017-01-15T04:51:02.203Z,0
2017-01-15T04:51:42.855Z,0
2017-01-15T04:52:23.510Z,0
2017-01-15T04:53:04.161Z,0
2017-01-15T04:53:44.814Z,0
2017-01-15T04:54:25.468Z,0
2017-01-15T04:55:06.121Z,0
2017-01-15T04:55:46.774Z,0
2017-01-15T04:56:27.419Z,0
2017-01-15T04:57:08.071Z,0
2017-01-15T04:57:48.729Z,0
2017-01-15T04:58:29.389Z,0
2017-01-15T04:59:10.055Z,0
2017-01-15T04:59:50.690Z,0
2017-01-15T05:00:31.344Z,0
2017-01-15T05:01:11.916Z,0
2017-01-15T05:01:52.511Z,0
2017-01-15T05:02:33.083Z,0
2017-01-15T05:03:13.711Z,0
2017-01-15T05:03:55.325Z,0
2017-01-15T05:04:35.979Z,0
2017-01-15T05:05:16.531Z,0
2017-01-15T05:05:57.147Z,0
2017-01-15T05:06:38.787Z,0
2017-01-15T05:07:19.410Z,0
2017-01-15T05:07:59.975Z,0
2017-01-15T05:08:40.565Z,0
2017-01-15T05:09:21.149Z,0
2017-01-15T05:10:01.817Z,0
2017-01-15T05:10:42.381Z,0
2017-01-15T05:11:23.013Z,0
2017-01-15T05:12:04.002Z,0
2017-01-15T05:12:44.632Z,0
2017-01-15T05:13:25.279Z,0
2017-01-15T05:14:05.939Z,0
2017-01-15T05:14:46.598Z,0
2017-01-15T05:15:27.246Z,0
2017-01-15T05:16:07.833Z,0
2017-01-15T05:16:48.400Z,0
2017-01-15T05:17:29.066Z,0
2017-01-15T05:18:09.747Z,0
2017-01-15T05:18:50.324Z,0
2017-01-15T05:19:30.959Z,0
2017-01-15T05:20:11.611Z,0
2017-01-15T05:20:52.177Z,0
2017-01-15T05:21:32.813Z,0
2017-01-15T05:22:13.460Z,0
2017-01-15T05:22:54.109Z,0
2017-01-15T05:23:34.774Z,0
2017-01-15T05:24:15.427Z,0
2017-01-15T05:24:56.079Z,0
2017-01-15T05:25:36.732Z,0
2017-01-15T05:26:17.384Z,0
2017-01-15T05:26:58.034Z,0
2017-01-15T05:27:38.690Z,0
2017-01-15T05:28:19.343Z,0
2017-01-15T05:28:59.996Z,0
2017-01-15T05:29:40.649Z,0
2017-01-15T05:30:21.236Z,0
2017-01-15T05:31:01.817Z,0
2017-01-15T05:31:42.464Z,0
2017-01-15T05:32:23.055Z,0
2017-01-15T05:33:03.617Z,0
2017-01-15T05:33:44.255Z,0
2017-01-15T05:34:24.925Z,0
2017-01-15T05:35:05.498Z,0
2017-01-15T05:35:46.111Z,0
2017-01-15T05:36:27.682Z,0
2017-01-15T05:37:08.343Z,0
2017-01-15T05:37:48.998Z,0
2017-01-15T05:38:29.649Z,0
2017-01-15T05:39:10.291Z,0
2017-01-15T05:39:50.956Z,0
2017-01-15T05:40:31.604Z,0
2017-01-15T05:41:12.261Z,0
2017-01-15T05:41:52.913Z,0
2017-01-15T05:42:33.567Z,0
2017-01-15T05:43:14.263Z,0
2017-01-15T05:43:54.872Z,0
2017-01-15T05:44:35.433Z,0
2017-01-15T05:45:16.022Z,0
2017-01-15T05:45:56.677Z,0
2017-01-15T05:46:37.282Z,0
2017-01-15T05:47:17.928Z,0
2017-01-15T05:47:58.483Z,0
2017-01-15T05:48:39.107Z,0
2017-01-15T05:49:19.789Z,0
2017-01-15T05:50:00.438Z,0
2017-01-15T05:50:41.006Z,0
2017-01-15T05:51:21.647Z,0
2017-01-15T05:52:02.294Z,0
2017-01-15T05:52:42.951Z,0
2017-01-15T05:53:23.600Z,0
2017-01-15T05:54:04.252Z,0
2017-01-15T05:54:44.909Z,0
2017-01-15T05:55:25.558Z,0
2017-01-15T05:56:06.160Z,0
2017-01-15T05:56:46.821Z,0
2017-01-15T05:57:27.418Z,0
2017-01-15T05:58:09.092Z,0
2017-01-15T05:58:49.675Z,0
2017-01-15T05:59:30.304Z,0
2017-01-15T06:00:10.948Z,0
2017-01-15T06:00:51.530Z,0
2017-01-15T06:01:32.152Z,0
2017-01-15T06:02:12.806Z,0
2017-01-15T06:02:53.456Z,0
2017-01-15T06:03:34.110Z,0
2017-01-15T06:04:14.764Z,0
2017-01-15T06:04:55.416Z,0
2017-01-15T06:05:36.069Z,0
2017-01-15T06:06:16.657Z,0
2017-01-15T06:06:57.841Z,0
2017-01-15T06:07:38.437Z,0
2017-01-15T06:08:19.090Z,0
2017-01-15T06:08:59.664Z,0
2017-01-15T06:09:40.282Z,0
2017-01-15T06:10:20.971Z,0
2017-01-15T06:11:01.604Z,0
2017-01-15T06:11:42.260Z,0
2017-01-15T06:12:22.903Z,0
2017-01-15T06:13:04.480Z,0
2017-01-15T06:13:45.148Z,0
2017-01-15T06:14:25.777Z,0
2017-01-15T06:15:06.443Z,0
2017-01-15T06:15:47.088Z,0
2017-01-15T06:16:27.744Z,0
2017-01-15T06:17:08.403Z,0
2017-01-15T06:17:49.057Z,0
2017-01-15T06:18:29.700Z,0
2017-01-15T06:19:10.354Z,0
2017-01-15T06:19:51.014Z,0
2017-01-15T06:20:31.657Z,0
2017-01-15T06:21:12.255Z,0
2017-01-15T06:21:52.822Z,0
2017-01-15T06:22:33.387Z,0
2017-01-15T06:23:14.062Z,0
2017-01-15T06:23:54.626Z,0
2017-01-15T06:24:35.200Z,0
2017-01-15T06:25:15.832Z,0
2017-01-15T06:25:56.450Z,0
2017-01-15T06:26:37.033Z,0
2017-01-15T06:27:17.687Z,0
2017-01-15T06:27:58.265Z,0
2017-01-15T06:28:38.944Z,0
2017-01-15T06:29:19.559Z,0
2017-01-15T06:30:00.188Z,0
2017-01-15T06:30:41.739Z,0
2017-01-15T06:31:22.361Z,0
2017-01-15T06:32:02.963Z,0
2017-01-15T06:32:43.517Z,0
2017-01-15T06:33:24.163Z,0
2017-01-15T06:34:04.856Z,0
2017-01-15T06:34:45.469Z,0
2017-01-15T06:35:26.028Z,0
2017-01-15T06:36:08.694Z,0
2017-01-15T06:36:49.287Z,0
2017-01-15T06:37:29.932Z,0
2017-01-15T06:38:10.586Z,0
2017-01-15T06:38:51.342Z,0
2017-01-15T06:39:31.994Z,0
2017-01-15T06:40:12.614Z,0
2017-01-15T06:40:53.301Z,0
2017-01-15T06:41:33.958Z,0
2017-01-15T06:42:15.622Z,0
2017-01-15T06:42:56.274Z,0
2017-01-15T06:43:36.931Z,0
2017-01-15T06:44:17.577Z,0
2017-01-15T06:44:58.247Z,0
2017-01-15T06:45:38.900Z,0
2017-01-15T06:46:19.552Z,0
2017-01-15T06:47:00.200Z,0
2017-01-15T06:47:40.849Z,0
2017-01-15T06:48:21.503Z,0
2017-01-15T06:49:02.165Z,0
2017-01-15T06:49:42.814Z,0
2017-01-15T06:50:24.489Z,0
2017-01-15T06:51:05.137Z,0
2017-01-15T06:51:45.796Z,0
2017-01-15T06:52:26.438Z,0
2017-01-15T06:53:07.096Z,0
2017-01-15T06:53:47.750Z,0
2017-01-15T06:54:28.327Z,0
2017-01-15T06:55:08.908Z,0
2017-01-15T06:55:49.577Z,0
2017-01-15T06:56:30.257Z,0
2017-01-15T06:57:10.826Z,0
2017-01-15T06:57:51.475Z,0
2017-01-15T06:58:32.115Z,0
2017-01-15T06:59:12.694Z,0
2017-01-15T06:59:53.354Z,0
2017-01-15T07:00:33.960Z,0
2017-01-15T07:01:14.511Z,0
2017-01-15T07:01:55.145Z,0
2017-01-15T07:02:35.802Z,0
2017-01-15T07:03:16.445Z,0
2017-01-15T07:03:57.097Z,0
2017-01-15T07:04:37.751Z,0
2017-01-15T07:05:19.430Z,0
2017-01-15T07:06:00.083Z,0
2017-01-15T07:06:40.764Z,0
2017-01-15T07:07:21.428Z,0
2017-01-15T07:08:01.999Z,0
2017-01-15T07:08:42.572Z,0
2017-01-15T07:09:23.169Z,0
2017-01-15T07:10:03.826Z,0
2017-01-15T07:10:44.404Z,0
2017-01-15T07:11:25.032Z,0
2017-01-15T07:12:05.683Z,0
2017-01-15T07:12:46.333Z,0
2017-01-15T07:13:26.991Z,0
2017-01-15T07:14:07.656Z,0
2017-01-15T07:14:48.293Z,0
2017-01-15T07:15:28.956Z,0
2017-01-15T07:16:09.629Z,0
2017-01-15T07:16:50.249Z,0
2017-01-15T07:17:31.848Z,0
2017-01-15T07:18:12.480Z,0
2017-01-15T07:18:53.131Z,0
2017-01-15T07:19:33.805Z,0
2017-01-15T07:20:14.444Z,0
2017-01-15T07:20:55.092Z,0
2017-01-15T07:21:35.660Z,0
2017-01-15T07:22:16.251Z,0
2017-01-15T07:22:56.907Z,0
2017-01-15T07:23:37.497Z,0
2017-01-15T07:24:18.161Z,0
2017-01-15T07:24:58.728Z,0
2017-01-15T07:25:39.319Z,0
2017-01-15T07:26:20.927Z,4
2017-01-15T07:27:01.592Z,4
2017-01-15T07:27:42.229Z,4
2017-01-15T07:28:22.906Z,4
2017-01-15T07:29:03.554Z,4
2017-01-15T07:29:44.200Z,4
2017-01-15T07:30:24.865Z,4
2017-01-15T07:31:05.492Z,4
2017-01-15T07:31:46.146Z,4
2017-01-15T07:32:26.799Z,4
2017-01-15T07:33:07.471Z,4
2017-01-15T07:33:49.141Z,4
2017-01-15T07:34:29.802Z,4
2017-01-15T07:35:10.456Z,4
2017-01-15T07:35:51.104Z,4
2017-01-15T07:36:31.665Z,4
2017-01-15T07:37:12.289Z,0
2017-01-15T07:37:52.950Z,4
2017-01-15T07:38:33.612Z,8
2017-01-15T07:39:14.165Z,4
2017-01-15T07:39:54.759Z,8
2017-01-15T07:40:35.364Z,8
2017-01-15T07:41:16.034Z,4
2017-01-15T07:41:56.583Z,8
2017-01-15T07:42:37.232Z,8
2017-01-15T07:43:17.866Z,8
2017-01-15T07:43:58.452Z,8
2017-01-15T07:44:39.093Z,8
2017-01-15T07:45:19.734Z,8
2017-01-15T07:46:00.285Z,12
2017-01-15T07:46:40.840Z,12
2017-01-15T07:47:21.480Z,12
2017-01-15T07:48:02.052Z,12
2017-01-15T07:48:42.629Z,12
2017-01-15T07:49:23.233Z,8
2017-01-15T07:50:03.885Z,8
2017-01-15T07:50:44.458Z,12
2017-01-15T07:51:25.037Z,12
2017-01-15T07:52:05.689Z,12
2017-01-15T07:52:46.354Z,12
2017-01-15T07:53:27.004Z,16
2017-01-15T07:54:07.692Z,12
2017-01-15T07:54:48.333Z,12
2017-01-15T07:55:28.980Z,12
2017-01-15T07:56:09.625Z,16
2017-01-15T07:56:50.323Z,16
2017-01-15T07:57:31.992Z,16
2017-01-15T07:58:12.650Z,16
2017-01-15T07:58:53.305Z,16
2017-01-15T07:59:33.958Z,16
2017-01-15T08:00:14.612Z,20
2017-01-15T08:00:55.263Z,20
2017-01-15T08:01:35.835Z,16
2017-01-15T08:02:16.443Z,16
2017-01-15T08:02:57.120Z,16
2017-01-15T08:03:37.771Z,16
2017-01-15T08:04:18.357Z,20
2017-01-15T08:04:59.031Z,20
2017-01-15T08:05:39.631Z,20
2017-01-15T08:06:21.203Z,20
2017-01-15T08:07:01.762Z,20
2017-01-15T08:07:42.359Z,20
2017-01-15T08:08:23.068Z,20
2017-01-15T08:09:05.784Z,20
2017-01-15T08:09:46.349Z,20
2017-01-15T08:10:27.012Z,24
2017-01-15T08:11:08.649Z,24
2017-01-15T08:11:49.286Z,24
2017-01-15T08:12:29.853Z,24
2017-01-15T08:13:10.447Z,24
2017-01-15T08:13:51.046Z,24
2017-01-15T08:14:31.710Z,24
2017-01-15T08:15:12.287Z,20
2017-01-15T08:15:52.949Z,24
2017-01-15T08:16:33.566Z,24
2017-01-15T08:17:14.161Z,24
2017-01-15T08:17:54.726Z,24
2017-01-15T08:18:35.379Z,28
2017-01-15T08:19:16.051Z,24
2017-01-15T08:19:56.728Z,24
2017-01-15T08:20:37.301Z,28
2017-01-15T08:21:17.970Z,28
2017-01-15T08:21:59.600Z,24
2017-01-15T08:22:40.251Z,28
2017-01-15T08:23:20.832Z,28
2017-01-15T08:24:01.426Z,28
2017-01-15T08:24:42.110Z,28
2017-01-15T08:25:22.763Z,28
2017-01-15T08:26:03.326Z,32
2017-01-15T08:26:43.913Z,32
2017-01-15T08:27:24.508Z,32
2017-01-15T08:28:05.167Z,36
2017-01-15T08:28:45.720Z,36
2017-01-15T08:29:26.364Z,40
2017-01-15T08:30:07.024Z,44
2017-01-15T08:30:47.689Z,44
2017-01-15T08:31:28.279Z,44
2017-01-15T08:32:08.922Z,48
2017-01-15T08:32:49.605Z,48
2017-01-15T08:33:30.229Z,52
2017-01-15T08:34:10.884Z,52
2017-01-15T08:34:51.537Z,60
2017-01-15T08:35:32.212Z,60
2017-01-15T08:36:12.846Z,60
2017-01-15T08:36:53.555Z,64
2017-01-15T08:37:34.207Z,68
2017-01-15T08:38:16.642Z,76
2017-01-15T08:38:57.252Z,80
2017-01-15T08:39:37.908Z,84
2017-01-15T08:40:18.554Z,88
2017-01-15T08:40:59.205Z,88
2017-01-15T08:41:39.855Z,88
2017-01-15T08:42:20.519Z,84
2017-01-15T08:43:01.173Z,84
2017-01-15T08:43:41.850Z,88
2017-01-15T08:44:22.478Z,88
2017-01-15T08:45:03.040Z,80
2017-01-15T08:45:43.675Z,64
2017-01-15T08:46:24.332Z,60
2017-01-15T08:47:04.984Z,60
2017-01-15T08:47:45.640Z,60
2017-01-15T08:48:26.292Z,56
2017-01-15T08:49:06.945Z,56
2017-01-15T08:49:47.597Z,60
2017-01-15T08:50:28.249Z,56
2017-01-15T08:51:08.895Z,52
2017-01-15T08:51:49.472Z,52
2017-01-15T08:52:30.073Z,48
2017-01-15T08:53:10.747Z,48
2017-01-15T08:53:51.413Z,48
2017-01-15T08:54:31.966Z,52
2017-01-15T08:55:12.553Z,56
2017-01-15T08:55:53.242Z,52
2017-01-15T08:56:33.795Z,56
2017-01-15T08:57:14.471Z,56
2017-01-15T08:57:55.051Z,56
2017-01-15T08:58:35.778Z,60
2017-01-15T08:59:16.434Z,60
2017-01-15T08:59:57.048Z,64
2017-01-15T09:00:37.712Z,68
2017-01-15T09:01:18.393Z,68
2017-01-15T09:01:58.970Z,68
2017-01-15T09:02:39.563Z,72
2017-01-15T09:03:20.237Z,88
2017-01-15T09:04:00.823Z,132
2017-01-15T09:04:41.429Z,80
2017-01-15T09:05:22.103Z,88
2017-01-15T09:06:02.689Z,128
2017-01-15T09:06:43.408Z,116
2017-01-15T09:07:24.076Z,148
2017-01-15T09:08:04.709Z,140
2017-01-15T09:08:45.357Z,164
2017-01-15T09:09:26.326Z,192
2017-01-15T09:10:07.084Z,120
2017-01-15T09:10:48.463Z,112
2017-01-15T09:11:29.125Z,168
2017-01-15T09:12:09.875Z,148
2017-01-15T09:12:50.725Z,100
2017-01-15T09:13:31.327Z,80
2017-01-15T09:14:11.985Z,68
2017-01-15T09:14:52.571Z,60
2017-01-15T09:15:33.301Z,52
2017-01-15T09:16:13.942Z,52
2017-01-15T09:16:54.693Z,48
2017-01-15T09:17:35.712Z,48
2017-01-15T09:18:16.737Z,48
2017-01-15T09:18:57.381Z,60
2017-01-15T09:19:38.131Z,64
2017-01-15T09:20:18.784Z,56
2017-01-15T09:20:59.536Z,52
2017-01-15T09:21:40.279Z,48
2017-01-15T09:22:21.386Z,44
2017-01-15T09:23:04.060Z,48
2017-01-15T09:23:44.714Z,44
2017-01-15T09:24:25.571Z,44
2017-01-15T09:25:06.217Z,40
2017-01-15T09:25:46.875Z,36
2017-01-15T09:26:27.573Z,36
2017-01-15T09:27:08.550Z,36
2017-01-15T09:27:49.183Z,36
2017-01-15T09:28:29.815Z,36
2017-01-15T09:29:10.416Z,36
2017-01-15T09:29:51.065Z,36
2017-01-15T09:30:31.616Z,36
2017-01-15T09:31:12.232Z,40
2017-01-15T09:31:52.821Z,44
2017-01-15T09:32:33.475Z,56
2017-01-15T09:33:14.180Z,60
2017-01-15T09:33:54.846Z,60
2017-01-15T09:34:35.567Z,64
2017-01-15T09:35:16.191Z,64
2017-01-15T09:35:56.804Z,64
2017-01-15T09:36:37.465Z,64
2017-01-15T09:37:18.047Z,60
2017-01-15T09:37:58.705Z,56
2017-01-15T09:38:39.278Z,56
2017-01-15T09:39:19.951Z,60
2017-01-15T09:40:00.650Z,60
2017-01-15T09:40:41.315Z,60
2017-01-15T09:41:21.841Z,64
2017-01-15T09:42:02.515Z,68
2017-01-15T09:42:43.295Z,68
2017-01-15T09:43:23.930Z,72
2017-01-15T09:44:04.587Z,72
2017-01-15T09:44:45.224Z,76
2017-01-15T09:45:25.884Z,80
2017-01-15T09:46:06.533Z,80
2017-01-15T09:46:47.197Z,84
2017-01-15T09:47:27.838Z,80
2017-01-15T09:48:08.496Z,80
2017-01-15T09:48:49.160Z,84
2017-01-15T09:49:29.820Z,80
2017-01-15T09:50:10.443Z,76
2017-01-15T09:50:51.115Z,76
2017-01-15T09:51:31.753Z,76
2017-01-15T09:52:12.411Z,72
2017-01-15T09:52:52.987Z,76
2017-01-15T09:53:33.578Z,76
2017-01-15T09:54:14.175Z,84
2017-01-15T09:54:54.822Z,84
2017-01-15T09:55:35.402Z,84
2017-01-15T09:56:15.969Z,88
2017-01-15T09:56:56.565Z,92
2017-01-15T09:57:38.051Z,92